createdAt,value
2023-04-15T00:00:03.660Z,12.27
2023-04-15T00:02:31.498Z,12.22
2023-04-15T00:04:59.271Z,11.87
2023-04-15T00:07:26.917Z,12.61
2023-04-15T00:09:56.288Z,12.82
2023-04-15T00:12:25.488Z,11.84
2023-04-15T00:15:02.363Z,11.91
2023-04-15T00:17:30.087Z,11.92
2023-04-15T00:19:59.873Z,12.62
2023-04-15T00:22:28.403Z,12.22
2023-04-15T00:24:56.508Z,12.12
2023-04-15T00:27:26.235Z,12.27
2023-04-15T00:29:53.934Z,12.35
2023-04-15T00:32:22.090Z,12.34
2023-04-15T00:34:49.812Z,12.75
2023-04-15T00:37:17.525Z,11.63
2023-04-15T00:39:45.230Z,11.71
2023-04-15T00:42:14.625Z,10.79
2023-04-15T00:44:43.965Z,11.87
2023-04-15T00:47:12.880Z,12.06
2023-04-15T00:49:40.876Z,11.81
2023-04-15T00:52:09.131Z,12.34
2023-04-15T00:54:37.585Z,12.47
2023-04-15T00:57:07.054Z,12.42
2023-04-15T00:59:35.353Z,12.08
2023-04-15T01:02:04.764Z,12.10
2023-04-15T01:04:33.583Z,11.99
2023-04-15T01:07:01.337Z,11.62
2023-04-15T01:09:29.360Z,11.19
2023-04-15T01:11:57.830Z,11.18
2023-04-15T01:14:25.955Z,11.72
2023-04-15T01:16:54.238Z,11.42
2023-04-15T01:19:23.349Z,11.55
2023-04-15T01:21:51.062Z,11.62
2023-04-15T01:24:19.860Z,11.69
2023-04-15T01:27:03.699Z,11.63
2023-04-15T01:29:33.425Z,10.95
2023-04-15T01:32:01.113Z,11.16
2023-04-15T01:34:28.830Z,11.52
2023-04-15T01:36:56.676Z,12.07
2023-04-15T01:39:24.430Z,12.56
2023-04-15T01:41:52.280Z,11.53
2023-04-15T01:44:21.747Z,12.12
2023-04-15T01:47:05.625Z,11.93
2023-04-15T01:49:33.811Z,12.08
2023-04-15T01:52:01.609Z,11.26
2023-04-15T01:54:29.272Z,11.25
2023-04-15T01:56:57.331Z,11.37
2023-04-15T01:59:26.510Z,12.08
2023-04-15T02:01:54.250Z,11.97
2023-04-15T02:04:21.937Z,11.68
2023-04-15T02:06:49.740Z,11.44
2023-04-15T02:09:17.822Z,11.73
2023-04-15T02:11:45.784Z,11.55
2023-04-15T02:14:13.704Z,11.01
2023-04-15T02:16:42.880Z,10.30
2023-04-15T02:19:10.659Z,10.96
2023-04-15T02:21:38.347Z,10.74
2023-04-15T02:24:06.655Z,10.56
2023-04-15T02:26:34.371Z,10.06
2023-04-15T02:29:02.270Z,10.98
2023-04-15T02:31:30.244Z,10.96
2023-04-15T02:34:00.189Z,10.92
2023-04-15T02:36:29.807Z,10.88
2023-04-15T02:38:57.739Z,11.16
2023-04-15T02:41:27.805Z,10.55
2023-04-15T02:43:55.576Z,10.82
2023-04-15T02:46:23.520Z,10.48
2023-04-15T02:48:51.656Z,10.51
2023-04-15T02:51:22.569Z,10.81
2023-04-15T02:53:50.770Z,10.74
2023-04-15T02:56:19.858Z,10.47
2023-04-15T02:58:50.554Z,10.84
2023-04-15T03:01:18.335Z,10.54
2023-04-15T03:03:46.395Z,10.63
2023-04-15T03:06:14.454Z,10.64
2023-04-15T03:09:05.128Z,11.38
2023-04-15T03:11:35.395Z,11.08
2023-04-15T03:14:04.018Z,11.13
2023-04-15T03:16:31.710Z,11.38
2023-04-15T03:18:59.598Z,10.57
2023-04-15T03:21:27.681Z,11.12
2023-04-15T03:23:56.251Z,11.03
2023-04-15T03:26:30.011Z,10.59
2023-04-15T03:28:58.499Z,10.05
2023-04-15T03:31:26.552Z,11.38
2023-04-15T03:33:54.364Z,11.76
2023-04-15T03:36:22.101Z,10.75
2023-04-15T03:38:50.447Z,10.43
2023-04-15T03:41:18.135Z,11.05
2023-04-15T03:43:47.271Z,11.02
2023-04-15T03:46:15.090Z,11.34
2023-04-15T03:48:42.795Z,11.69
2023-04-15T03:51:10.471Z,11.48
2023-04-15T03:53:38.204Z,11.04
2023-04-15T03:56:06.611Z,11.12
2023-04-15T03:58:34.289Z,11.10
2023-04-15T04:01:03.372Z,11.51
2023-04-15T04:03:31.238Z,11.80
2023-04-15T04:05:59.033Z,11.10
2023-04-15T04:08:27.547Z,11.05
2023-04-15T04:10:55.261Z,11.34
2023-04-15T04:13:22.990Z,11.19
2023-04-15T04:15:50.741Z,10.55
2023-04-15T04:18:19.812Z,10.87
2023-04-15T04:20:47.791Z,11.40
2023-04-15T04:23:15.543Z,11.64
2023-04-15T04:25:43.701Z,11.27
2023-04-15T04:28:11.706Z,10.73
2023-04-15T04:30:39.495Z,11.40
2023-04-15T04:33:07.991Z,11.36
2023-04-15T04:35:37.838Z,11.81
2023-04-15T04:38:05.720Z,11.75
2023-04-15T04:40:33.507Z,10.94
2023-04-15T04:43:01.708Z,11.97
2023-04-15T04:45:29.717Z,11.84
2023-04-15T04:47:57.452Z,12.47
2023-04-15T04:50:25.217Z,11.81
2023-04-15T04:52:54.323Z,11.45
2023-04-15T04:55:22.128Z,11.63
2023-04-15T04:57:49.875Z,11.26
2023-04-15T05:00:17.749Z,11.70
2023-04-15T05:02:45.533Z,11.53
2023-04-15T05:10:45.804Z,11.79
2023-04-15T05:13:13.477Z,11.72
2023-04-15T05:15:43.313Z,11.77
2023-04-15T05:18:11.148Z,11.78
2023-04-15T05:20:38.984Z,11.29
2023-04-15T05:23:06.980Z,10.82
2023-04-15T05:25:34.696Z,11.49
2023-04-15T05:28:03.776Z,12.19
2023-04-15T05:30:31.513Z,12.26
2023-04-15T05:32:59.266Z,11.59
2023-04-15T05:35:27.239Z,12.13
2023-04-15T05:37:54.912Z,12.03
2023-04-15T05:40:22.983Z,12.44
2023-04-15T05:42:51.287Z,12.20
2023-04-15T05:45:20.486Z,11.97
2023-04-15T05:47:50.427Z,11.50
2023-04-15T05:50:18.400Z,11.01
2023-04-15T05:52:46.178Z,12.16
2023-04-15T05:55:16.360Z,11.84
2023-04-15T05:57:44.082Z,11.62
2023-04-15T06:00:13.199Z,11.99
2023-04-15T06:02:42.681Z,11.58
2023-04-15T06:05:11.847Z,11.97
2023-04-15T06:07:39.828Z,10.94
2023-04-15T06:10:08.965Z,11.70
2023-04-15T06:12:36.774Z,11.91
2023-04-15T06:15:05.068Z,12.22
2023-04-15T06:17:32.754Z,12.01
2023-04-15T06:20:01.856Z,11.05
2023-04-15T06:22:29.553Z,12.04
2023-04-15T06:24:57.249Z,11.88
2023-04-15T06:27:24.937Z,12.63
2023-04-15T06:29:52.582Z,12.47
2023-04-15T06:32:20.516Z,12.96
2023-04-15T06:34:48.183Z,12.10
2023-04-15T06:37:17.209Z,12.17
2023-04-15T06:39:45.211Z,11.96
2023-04-15T06:42:13.223Z,13.16
2023-04-15T06:44:41.126Z,12.79
2023-04-15T06:47:09.126Z,12.05
2023-04-15T06:49:37.034Z,13.43
2023-04-15T06:52:05.389Z,13.08
2023-04-15T06:54:34.424Z,11.96
2023-04-15T06:57:02.146Z,12.48
2023-04-15T06:59:29.999Z,12.22
2023-04-15T07:01:57.681Z,13.87
2023-04-15T07:04:25.735Z,12.76
2023-04-15T07:06:54.048Z,12.55
2023-04-15T07:09:21.698Z,12.93
2023-04-15T07:11:51.539Z,12.30
2023-04-15T07:14:19.499Z,12.49
2023-04-15T07:16:47.330Z,13.22
2023-04-15T07:19:15.080Z,13.72
2023-04-15T07:21:42.783Z,13.72
2023-04-15T07:24:10.922Z,14.29
2023-04-15T07:26:38.756Z,15.03
2023-04-15T07:29:07.829Z,14.24
2023-04-15T07:31:36.986Z,14.83
2023-04-15T07:34:05.236Z,14.63
2023-04-15T07:36:32.925Z,14.74
2023-04-15T07:39:02.268Z,14.58
2023-04-15T07:41:30.903Z,13.18
2023-04-15T07:43:58.961Z,14.42
2023-04-15T07:46:28.617Z,14.47
2023-04-15T07:48:56.574Z,14.24
2023-04-15T07:51:24.978Z,14.21
2023-04-15T07:53:52.916Z,14.12
2023-04-15T07:56:20.770Z,14.73
2023-04-15T07:58:48.436Z,14.57
2023-04-15T08:01:16.578Z,13.67
2023-04-15T08:03:46.026Z,14.15
2023-04-15T08:06:14.546Z,13.52
2023-04-15T08:08:43.164Z,14.28
2023-04-15T08:11:10.902Z,14.63
2023-04-15T08:13:38.546Z,14.66
2023-04-15T08:16:18.981Z,14.63
2023-04-15T08:18:48.430Z,14.08
2023-04-15T08:21:16.166Z,15.33
2023-04-15T08:23:44.288Z,14.29
2023-04-15T08:26:12.361Z,13.61
2023-04-15T08:28:41.732Z,15.11
2023-04-15T08:31:10.409Z,14.56
2023-04-15T08:33:38.219Z,15.74
2023-04-15T08:36:07.997Z,15.01
2023-04-15T08:38:36.277Z,13.68
2023-04-15T08:41:07.712Z,14.63
2023-04-15T08:43:36.400Z,14.42
2023-04-15T08:46:05.658Z,14.80
2023-04-15T08:48:34.333Z,14.32
2023-04-15T08:51:02.418Z,14.71
2023-04-15T08:53:32.647Z,14.36
2023-04-15T08:56:01.675Z,15.30
2023-04-15T08:58:29.734Z,15.20
2023-04-15T09:01:21.852Z,15.59
2023-04-15T09:03:50.445Z,14.97
2023-04-15T09:06:18.463Z,15.01
2023-04-15T09:08:47.705Z,15.68
2023-04-15T09:11:15.432Z,14.91
2023-04-15T09:13:43.110Z,15.65
2023-04-15T09:16:11.147Z,14.44
2023-04-15T09:18:39.907Z,15.18
2023-04-15T09:21:09.075Z,14.08
2023-04-15T09:24:02.559Z,13.85
2023-04-15T09:26:35.123Z,14.16
2023-04-15T09:32:19.691Z,14.54
2023-04-15T09:34:48.549Z,14.61
2023-04-15T09:37:31.518Z,15.02
2023-04-15T09:40:01.271Z,14.85
2023-04-15T09:42:29.254Z,14.26
2023-04-15T09:44:57.249Z,14.85
2023-04-15T09:47:32.314Z,14.74
2023-04-15T09:50:01.765Z,14.42
2023-04-15T09:52:29.831Z,14.11
2023-04-15T09:54:59.204Z,14.14
2023-04-15T09:57:35.624Z,15.39
2023-04-15T10:00:04.288Z,15.40
2023-04-15T10:02:32.701Z,14.96
2023-04-15T10:05:01.124Z,14.57
2023-04-15T10:07:28.813Z,13.62
2023-04-15T10:09:57.143Z,13.84
2023-04-15T10:12:24.851Z,14.73
2023-04-15T10:18:21.232Z,15.61
2023-04-15T10:20:49.834Z,14.14
2023-04-15T10:23:18.804Z,14.56
2023-04-15T10:25:47.282Z,16.21
2023-04-15T10:28:16.389Z,14.02
2023-04-15T10:30:44.607Z,15.51
2023-04-15T10:33:12.791Z,15.89
2023-04-15T10:35:42.274Z,14.47
2023-04-15T10:38:37.985Z,16.83
2023-04-15T10:41:21.011Z,15.94
2023-04-15T10:43:51.269Z,14.93
2023-04-15T10:46:22.202Z,14.97
2023-04-15T10:48:51.557Z,14.41
2023-04-15T10:51:31.861Z,15.47
2023-04-15T10:54:00.917Z,14.97
2023-04-15T10:56:30.557Z,15.21
2023-04-15T10:59:00.768Z,16.59
2023-04-15T11:01:53.343Z,15.15
2023-04-15T11:04:56.182Z,14.95
2023-04-15T11:07:37.068Z,16.59
2023-04-15T11:10:05.460Z,15.55
2023-04-15T11:12:36.783Z,15.18
2023-04-15T11:15:29.798Z,15.36
2023-04-15T11:17:58.140Z,16.47
2023-04-15T11:20:26.357Z,15.51
2023-04-15T11:23:13.944Z,15.65
2023-04-15T11:25:44.026Z,16.90
2023-04-15T11:28:13.140Z,15.03
2023-04-15T11:30:41.391Z,15.24
2023-04-15T11:33:28.086Z,16.38
2023-04-15T11:35:56.258Z,15.90
2023-04-15T11:38:25.399Z,14.08
2023-04-15T11:40:53.376Z,15.01
2023-04-15T11:43:22.747Z,14.58
2023-04-15T11:45:52.975Z,15.11
2023-04-15T11:48:21.736Z,16.89
2023-04-15T11:50:54.756Z,16.38
2023-04-15T11:53:22.694Z,16.14
2023-04-15T11:55:52.946Z,15.60
2023-04-15T11:58:22.223Z,16.03
2023-04-15T12:00:52.473Z,14.85
2023-04-15T12:03:23.307Z,14.98
2023-04-15T12:06:10.562Z,16.58
2023-04-15T12:08:54.777Z,15.78
2023-04-15T12:11:33.304Z,16.43
2023-04-15T12:14:05.597Z,15.54
2023-04-15T12:16:49.299Z,16.12
2023-04-15T12:19:20.074Z,17.43
2023-04-15T12:21:49.077Z,14.87
2023-04-15T12:24:16.822Z,15.19
2023-04-15T12:26:48.112Z,15.54
2023-04-15T12:29:17.549Z,15.37
2023-04-15T12:31:52.528Z,14.33
2023-04-15T12:34:27.734Z,15.08
2023-04-15T12:36:55.566Z,15.38
2023-04-15T12:39:24.384Z,15.08
2023-04-15T12:41:53.803Z,14.75
2023-04-15T12:44:23.999Z,16.04
2023-04-15T12:46:53.116Z,15.80
2023-04-15T12:49:21.811Z,15.21
2023-04-15T12:51:50.731Z,15.06
2023-04-15T12:54:19.293Z,16.24
2023-04-15T12:56:47.996Z,15.93
2023-04-15T12:59:18.586Z,15.43
2023-04-15T13:01:46.807Z,15.78
2023-04-15T13:04:14.692Z,15.52
2023-04-15T13:06:42.495Z,17.13
2023-04-15T13:09:10.483Z,15.44
2023-04-15T13:11:38.237Z,15.69
2023-04-15T13:14:07.878Z,14.58
2023-04-15T13:16:37.233Z,15.94
2023-04-15T13:19:05.546Z,16.09
2023-04-15T13:21:35.926Z,16.58
2023-04-15T13:24:05.203Z,15.25
2023-04-15T13:26:33.181Z,15.15
2023-04-15T13:29:06.814Z,14.92
2023-04-15T13:31:35.948Z,15.42
2023-04-15T13:34:03.932Z,14.82
2023-04-15T13:36:31.901Z,14.52
2023-04-15T13:39:00.049Z,16.06
2023-04-15T13:41:27.828Z,15.66
2023-04-15T13:43:55.961Z,15.11
2023-04-15T13:46:23.681Z,14.76
2023-04-15T13:48:52.811Z,15.54
2023-04-15T13:51:20.533Z,15.01
2023-04-15T13:53:48.226Z,15.43
2023-04-15T13:56:16.092Z,15.82
2023-04-15T13:58:43.787Z,14.64
2023-04-15T14:01:11.839Z,15.71
2023-04-15T14:03:39.944Z,14.73
2023-04-15T14:06:09.226Z,15.32
2023-04-15T14:08:36.995Z,14.28
2023-04-15T14:11:04.710Z,15.00
2023-04-15T14:13:32.432Z,13.70
2023-04-15T14:16:00.545Z,14.05
2023-04-15T14:18:28.454Z,14.21
2023-04-15T14:20:56.179Z,15.02
2023-04-15T14:23:25.327Z,14.98
2023-04-15T14:25:53.115Z,14.83
2023-04-15T14:28:20.867Z,14.94
2023-04-15T14:30:48.621Z,14.32
2023-04-15T14:33:16.427Z,14.88
2023-04-15T14:35:44.550Z,13.70
2023-04-15T14:38:12.301Z,14.27
2023-04-15T14:40:42.239Z,13.86
2023-04-15T14:43:10.136Z,14.58
2023-04-15T14:45:40.680Z,15.03
2023-04-15T14:48:12.749Z,14.67
2023-04-15T14:50:40.763Z,14.80
2023-04-15T14:53:08.467Z,13.49
2023-04-15T14:55:36.289Z,14.93
2023-04-15T14:58:06.065Z,14.65
2023-04-15T15:00:34.058Z,13.19
2023-04-15T15:03:02.038Z,14.05
2023-04-15T15:05:29.905Z,13.64
2023-04-15T15:07:57.680Z,14.20
2023-04-15T15:10:44.172Z,14.56
2023-04-15T15:13:14.641Z,14.36
2023-04-15T15:15:42.672Z,14.34
2023-04-15T15:18:11.450Z,15.16
2023-04-15T15:20:39.353Z,15.43
2023-04-15T15:23:07.064Z,13.96
2023-04-15T15:25:34.852Z,14.35
2023-04-15T15:28:02.615Z,15.42
2023-04-15T15:30:31.717Z,14.65
2023-04-15T15:32:59.760Z,14.38
2023-04-15T15:35:27.855Z,13.26
2023-04-15T15:37:56.105Z,13.43
2023-04-15T15:40:24.090Z,14.23
2023-04-15T15:42:52.184Z,14.59
2023-04-15T15:45:20.098Z,13.71
2023-04-15T15:47:50.788Z,13.67
2023-04-15T15:50:18.903Z,13.53
2023-04-15T15:52:46.632Z,13.68
2023-04-15T15:55:14.323Z,13.36
2023-04-15T15:57:42.035Z,13.53
2023-04-15T16:00:12.766Z,13.39
2023-04-15T16:05:13.294Z,14.25
2023-04-15T16:07:41.039Z,13.44
2023-04-15T16:10:10.254Z,13.63
2023-04-15T16:12:59.662Z,13.79
2023-04-15T16:15:27.485Z,13.98
2023-04-15T16:17:55.225Z,12.57
2023-04-15T16:20:24.550Z,13.42
2023-04-15T16:22:52.253Z,13.48
2023-04-15T16:25:20.115Z,13.51
2023-04-15T16:27:59.291Z,13.34
2023-04-15T16:30:29.056Z,13.91
2023-04-15T16:32:57.397Z,13.84
2023-04-15T16:35:26.806Z,13.97
2023-04-15T16:37:54.522Z,12.98
2023-04-15T16:40:22.255Z,13.83
2023-04-15T16:42:50.688Z,14.06
2023-04-15T16:45:18.883Z,14.20
2023-04-15T16:47:46.740Z,13.96
2023-04-15T16:50:14.663Z,13.73
2023-04-15T16:52:43.752Z,15.20
2023-04-15T16:55:11.473Z,13.50
2023-04-15T16:58:00.828Z,13.67
2023-04-15T17:00:27.181Z,13.31
2023-04-15T17:02:56.204Z,13.73
2023-04-15T17:05:24.041Z,13.80
2023-04-15T17:07:53.100Z,13.52
2023-04-15T17:10:20.868Z,13.99
2023-04-15T17:12:49.936Z,13.69
2023-04-15T17:15:17.692Z,13.92
2023-04-15T17:17:45.624Z,14.21
2023-04-15T17:20:13.386Z,14.59
2023-04-15T17:22:41.120Z,13.81
2023-04-15T17:25:10.808Z,13.79
2023-04-15T17:27:39.094Z,13.92
2023-04-15T17:30:08.218Z,14.47
2023-04-15T17:32:35.996Z,13.59
2023-04-15T17:35:06.495Z,13.84
2023-04-15T17:37:34.378Z,13.78
2023-04-15T17:40:06.589Z,13.53
2023-04-15T17:42:37.173Z,14.26
2023-04-15T17:45:05.691Z,14.73
2023-04-15T17:47:33.483Z,13.33
2023-04-15T17:50:01.208Z,13.62
2023-04-15T17:52:28.972Z,13.45
2023-04-15T17:54:56.929Z,12.83
2023-04-15T17:57:25.268Z,14.49
2023-04-15T17:59:54.455Z,13.72
2023-04-15T18:02:22.407Z,14.24
2023-04-15T18:04:50.372Z,13.86
2023-04-15T18:07:18.147Z,14.81
2023-04-15T18:09:46.149Z,13.91
2023-04-15T18:12:13.827Z,14.51
2023-04-15T18:14:41.465Z,14.85
2023-04-15T18:17:10.851Z,14.10
2023-04-15T18:19:38.621Z,15.21
2023-04-15T18:22:06.532Z,14.20
2023-04-15T18:24:34.191Z,13.75
2023-04-15T18:27:02.970Z,13.80
2023-04-15T18:29:31.999Z,14.05
2023-04-15T18:32:03.044Z,13.07
2023-04-15T18:34:32.302Z,12.82
2023-04-15T18:37:00.122Z,14.60
2023-04-15T18:39:28.146Z,14.44
2023-04-15T18:41:57.283Z,13.18
2023-04-15T18:44:25.015Z,13.56
2023-04-15T18:46:52.723Z,14.50
2023-04-15T18:49:20.422Z,13.53
2023-04-15T18:51:49.683Z,13.38
2023-04-15T18:54:17.327Z,13.36
2023-04-15T18:56:45.047Z,13.38
2023-04-15T18:59:29.099Z,14.29
2023-04-15T19:01:58.733Z,13.60
2023-04-15T19:04:26.718Z,13.14
2023-04-15T19:06:56.003Z,13.87
2023-04-15T19:09:23.765Z,14.08
2023-04-15T19:11:51.435Z,13.89
2023-04-15T19:14:19.374Z,13.23
2023-04-15T19:16:47.072Z,12.98
2023-04-15T19:19:15.208Z,13.75
2023-04-15T19:21:42.910Z,12.75
2023-04-15T19:24:12.290Z,13.19
2023-04-15T19:26:39.989Z,14.07
2023-04-15T19:29:07.948Z,13.32
2023-04-15T19:31:35.739Z,13.65
2023-04-15T19:34:03.673Z,14.45
2023-04-15T19:36:32.698Z,13.47
2023-04-15T19:39:01.066Z,14.10
2023-04-15T19:41:30.157Z,13.41
2023-04-15T19:43:57.951Z,13.67
2023-04-15T19:46:25.671Z,13.64
2023-04-15T19:48:53.880Z,13.47
2023-04-15T19:51:21.690Z,13.71
2023-04-15T19:53:50.479Z,13.78
2023-04-15T19:56:18.141Z,14.59
2023-04-15T19:58:52.777Z,14.08
2023-04-15T20:01:20.797Z,14.51
2023-04-15T20:03:48.900Z,13.22
2023-04-15T20:06:16.889Z,13.16
2023-04-15T20:08:44.841Z,12.97
2023-04-15T20:11:15.193Z,13.53
2023-04-15T20:13:43.042Z,13.71
2023-04-15T20:16:12.851Z,13.16
2023-04-15T20:18:41.410Z,14.78
2023-04-15T20:21:09.119Z,14.45
2023-04-15T20:23:38.282Z,13.93
2023-04-15T20:26:06.505Z,13.33
2023-04-15T20:28:36.087Z,12.96
2023-04-15T20:31:04.032Z,13.90
2023-04-15T20:33:33.126Z,13.77
2023-04-15T20:36:01.025Z,14.63
2023-04-15T20:38:28.734Z,13.38
2023-04-15T20:40:57.788Z,13.24
2023-04-15T20:43:26.093Z,13.01
2023-04-15T20:45:54.610Z,14.02
2023-04-15T20:48:22.845Z,13.77
2023-04-15T20:50:52.157Z,13.30
2023-04-15T20:53:19.823Z,13.44
2023-04-15T20:55:47.490Z,14.15
2023-04-15T20:58:15.137Z,13.86
2023-04-15T21:00:42.893Z,14.57
2023-04-15T21:03:11.937Z,14.15
2023-04-15T21:05:40.121Z,13.41
2023-04-15T21:08:09.401Z,14.52
2023-04-15T21:10:37.068Z,13.59
2023-04-15T21:13:06.366Z,13.26
2023-04-15T21:15:34.330Z,13.35
2023-04-15T21:18:02.128Z,13.45
2023-04-15T21:20:30.071Z,13.99
2023-04-15T21:22:57.737Z,14.36
2023-04-15T21:25:27.001Z,13.76
2023-04-15T21:27:54.693Z,14.20
2023-04-15T21:30:24.426Z,13.64
2023-04-15T21:32:52.343Z,14.40
2023-04-15T21:35:20.032Z,14.05
2023-04-15T21:37:47.706Z,13.49
2023-04-15T21:40:16.016Z,13.55
2023-04-15T21:42:45.134Z,13.19
2023-04-15T21:45:13.336Z,13.77
2023-04-15T21:47:59.457Z,13.36
2023-04-15T21:50:29.007Z,14.40
2023-04-15T21:52:56.671Z,13.69
2023-04-15T21:55:24.551Z,13.66
2023-04-15T21:57:53.619Z,14.07
2023-04-15T22:00:21.320Z,13.80
2023-04-15T22:02:49.287Z,13.99
2023-04-15T22:05:17.312Z,14.10
2023-04-15T22:07:45.228Z,13.22
2023-04-15T22:10:12.903Z,13.78
2023-04-15T22:12:41.872Z,14.11
2023-04-15T22:15:11.304Z,13.55
2023-04-15T22:17:39.044Z,13.91
2023-04-15T22:20:08.272Z,13.54
2023-04-15T22:22:44.295Z,13.56
2023-04-15T22:25:12.497Z,13.60
2023-04-15T22:27:40.266Z,13.68
2023-04-15T22:30:09.227Z,14.57
2023-04-15T22:33:02.088Z,14.16
2023-04-15T22:35:29.837Z,13.22
2023-04-15T22:37:57.651Z,13.34
2023-04-15T22:40:25.363Z,13.34
2023-04-15T22:42:53.053Z,14.67
2023-04-15T22:45:20.958Z,14.76
2023-04-15T22:47:48.917Z,13.75
2023-04-15T22:50:17.971Z,13.85
2023-04-15T22:52:47.414Z,13.20
2023-04-15T22:55:15.605Z,13.94
2023-04-15T22:57:43.323Z,13.18
2023-04-15T23:00:11.550Z,14.07
2023-04-15T23:02:39.295Z,13.86
2023-04-15T23:05:12.260Z,13.55
2023-04-15T23:07:42.568Z,14.14
2023-04-15T23:10:10.630Z,14.68
2023-04-15T23:12:38.348Z,13.34
2023-04-15T23:15:06.920Z,13.82
2023-04-15T23:17:35.004Z,12.95
2023-04-15T23:20:03.155Z,13.56
2023-04-15T23:22:30.912Z,14.15
2023-04-15T23:25:00.019Z,14.37
2023-04-15T23:27:27.711Z,14.23
2023-04-15T23:29:55.406Z,14.46
2023-04-15T23:32:23.152Z,13.86
2023-04-15T23:34:52.260Z,13.01
2023-04-15T23:37:20.080Z,13.26
2023-04-15T23:39:47.856Z,13.65
2023-04-15T23:42:17.350Z,13.62
2023-04-15T23:44:45.187Z,13.72
2023-04-15T23:47:12.850Z,14.06
2023-04-15T23:49:40.961Z,13.84
2023-04-15T23:52:08.810Z,14.50
2023-04-15T23:54:36.909Z,14.20
2023-04-15T23:57:04.938Z,13.39
2023-04-15T23:59:33.985Z,13.41
